createdAt,value
2019-03-12T00:00:13.106Z,993.66
2019-03-12T00:01:11.663Z,993.67
2019-03-12T00:02:15.663Z,993.69
2019-03-12T00:03:11.663Z,993.69
2019-03-12T00:04:11.665Z,993.71
2019-03-12T00:05:12.166Z,993.76
2019-03-12T00:06:12.164Z,993.78
2019-03-12T00:07:12.162Z,993.79
2019-03-12T00:08:15.681Z,993.84
2019-03-12T00:09:12.671Z,993.84
2019-03-12T00:10:12.684Z,993.88
2019-03-12T00:11:12.662Z,993.88
2019-03-12T00:12:12.661Z,993.90
2019-03-12T00:13:37.661Z,993.88
2019-03-12T00:14:13.162Z,993.92
2019-03-12T00:15:13.181Z,993.93
2019-03-12T00:16:13.166Z,993.99
2019-03-12T00:18:49.393Z,993.99
2019-03-12T00:19:45.394Z,993.93
2019-03-12T00:20:45.393Z,993.89
2019-03-12T00:22:06.897Z,993.94
2019-03-12T00:22:45.897Z,993.97
2019-03-12T00:23:49.395Z,993.94
2019-03-12T00:24:45.897Z,993.97
2019-03-12T00:25:46.395Z,993.96
2019-03-12T00:26:46.393Z,994.00
2019-03-12T00:27:46.392Z,994.03
2019-03-12T00:28:50.393Z,994.01
2019-03-12T00:29:46.893Z,994.03
2019-03-12T00:32:39.756Z,994.04
2019-03-12T00:34:56.433Z,993.98
2019-03-12T00:36:10.995Z,993.95
2019-03-12T00:36:49.998Z,993.91
2019-03-12T00:38:11.498Z,993.93
2019-03-12T00:38:50.497Z,993.91
2019-03-12T00:40:15.025Z,993.99
2019-03-12T00:40:50.498Z,993.96
2019-03-12T00:42:11.999Z,994.02
2019-03-12T00:43:11.998Z,993.99
2019-03-12T00:44:11.997Z,993.97
2019-03-12T00:44:51.000Z,994.00
2019-03-12T00:46:15.498Z,994.00
2019-03-12T00:46:51.497Z,994.04
2019-03-12T00:47:51.497Z,994.02
2019-03-12T00:48:51.499Z,994.10
2019-03-12T00:51:26.230Z,994.17
2019-03-12T00:52:23.227Z,994.13
2019-03-12T00:53:23.809Z,994.13
2019-03-12T00:54:23.827Z,994.12
2019-03-12T00:55:25.749Z,994.10
2019-03-12T00:56:48.238Z,994.10
2019-03-12T00:57:23.727Z,994.15
2019-03-12T00:58:24.224Z,994.16
2019-03-12T00:59:24.279Z,994.11
2019-03-12T01:00:24.235Z,994.16
2019-03-12T01:01:24.226Z,994.17
2019-03-12T01:02:28.229Z,994.16
2019-03-12T01:03:24.727Z,994.19
2019-03-12T01:04:24.759Z,994.19
2019-03-12T01:05:24.727Z,994.22
2019-03-12T01:06:25.226Z,994.25
2019-03-12T01:07:25.225Z,994.25
2019-03-12T01:08:28.226Z,994.26
2019-03-12T01:09:25.249Z,994.28
2019-03-12T01:10:46.732Z,994.28
2019-03-12T01:11:25.731Z,994.28
2019-03-12T01:12:25.725Z,994.29
2019-03-12T01:13:30.711Z,994.34
2019-03-12T01:15:57.441Z,994.36
2019-03-12T01:16:57.448Z,994.34
2019-03-12T01:18:18.453Z,994.37
2019-03-12T01:19:00.948Z,994.38
2019-03-12T01:19:57.955Z,994.37
2019-03-12T01:20:57.950Z,994.37
2019-03-12T01:21:57.951Z,994.39
2019-03-12T01:22:58.453Z,994.39
2019-03-12T01:24:22.448Z,994.38
2019-03-12T01:24:58.446Z,994.38
2019-03-12T01:25:58.449Z,994.36
2019-03-12T01:28:30.179Z,994.39
2019-03-12T01:29:34.185Z,994.41
2019-03-12T01:30:30.184Z,994.44
2019-03-12T01:31:51.692Z,994.46
2019-03-12T01:32:30.687Z,994.44
2019-03-12T01:33:33.118Z,994.44
2019-03-12T01:34:30.684Z,994.48
2019-03-12T01:35:35.195Z,994.49
2019-03-12T01:36:31.182Z,994.52
2019-03-12T01:37:34.121Z,994.53
2019-03-12T01:38:31.184Z,994.57
2019-03-12T01:39:31.682Z,994.57
2019-03-12T01:40:31.686Z,994.60
2019-03-12T01:41:35.198Z,994.59
2019-03-12T01:42:52.732Z,994.59
2019-03-12T01:45:03.417Z,994.67
2019-03-12T01:46:03.429Z,994.70
2019-03-12T01:47:07.429Z,994.67
2019-03-12T01:48:03.923Z,994.71
2019-03-12T01:49:03.925Z,994.69
2019-03-12T01:50:03.926Z,994.67
2019-03-12T01:51:03.925Z,994.72
2019-03-12T01:52:04.432Z,994.76
2019-03-12T01:53:07.423Z,994.77
2019-03-12T01:54:04.424Z,994.72
2019-03-12T01:55:04.423Z,994.76
2019-03-12T01:56:04.937Z,994.75
2019-03-12T01:57:04.927Z,994.77
2019-03-12T01:58:14.399Z,994.75
2019-03-12T01:59:04.922Z,994.69
2019-03-12T02:00:05.423Z,994.72
2019-03-12T02:01:05.424Z,994.71
2019-03-12T02:02:05.428Z,994.67
2019-03-12T02:03:05.438Z,994.67
2019-03-12T02:04:30.923Z,994.66
2019-03-12T02:05:06.034Z,994.60
2019-03-12T02:06:05.928Z,994.62
2019-03-12T02:07:05.932Z,994.60
2019-03-12T03:58:54.243Z,994.61
2019-03-12T03:59:29.163Z,994.62
2019-03-12T04:00:29.173Z,994.62
2019-03-12T04:01:29.181Z,994.65
2019-03-12T04:02:29.675Z,994.63
2019-03-12T04:03:29.666Z,994.62
2019-03-12T04:04:35.161Z,994.58
2019-03-12T04:05:29.669Z,994.56
2019-03-12T04:06:33.819Z,994.51
2019-03-12T04:07:51.168Z,994.49
2019-03-12T04:08:30.163Z,994.47
2019-03-12T04:09:34.175Z,994.45
2019-03-12T04:10:30.684Z,994.46
2019-03-12T04:11:30.664Z,994.47
2019-03-12T04:12:30.662Z,994.45
2019-03-12T04:13:30.665Z,994.48
2019-03-12T04:14:31.220Z,994.46
2019-03-12T04:15:35.161Z,994.47
2019-03-12T04:16:31.165Z,994.45
2019-03-12T04:17:31.168Z,994.48
2019-03-12T04:18:52.660Z,994.48
2019-03-12T04:19:31.667Z,994.43
2019-03-12T04:20:31.669Z,994.45
2019-03-12T04:23:06.456Z,994.45
2019-03-12T04:24:06.462Z,994.42
2019-03-12T04:25:06.480Z,994.48
2019-03-12T04:26:27.969Z,994.50
2019-03-12T04:27:10.455Z,994.46
2019-03-12T04:28:06.959Z,994.47
2019-03-12T04:29:06.958Z,994.49
2019-03-12T04:30:07.464Z,994.47
2019-03-12T04:31:07.461Z,994.44
2019-03-12T04:32:07.458Z,994.47
2019-03-12T04:33:11.458Z,994.45
2019-03-12T04:34:07.955Z,994.46
2019-03-12T04:35:07.953Z,994.42
2019-03-12T04:36:07.957Z,994.40
2019-03-12T04:37:07.961Z,994.37
2019-03-12T04:38:08.457Z,994.43
2019-03-12T04:39:11.464Z,994.38
2019-03-12T04:40:29.465Z,994.33
2019-03-12T04:41:08.465Z,994.33
2019-03-12T04:42:29.970Z,994.34
2019-03-12T04:43:08.960Z,994.35
2019-03-12T04:44:12.956Z,994.37
2019-03-12T04:45:08.957Z,994.39
2019-03-12T04:46:09.464Z,994.38
2019-03-12T04:47:09.457Z,994.49
2019-03-12T04:48:09.455Z,994.51
2019-03-12T04:49:09.459Z,994.46
2019-03-12T04:50:15.413Z,994.46
2019-03-12T04:51:09.958Z,994.46
2019-03-12T04:53:42.755Z,994.45
2019-03-12T04:54:41.329Z,994.43
2019-03-12T04:55:45.327Z,994.35
2019-03-12T04:57:04.829Z,994.33
2019-03-12T04:58:02.820Z,994.34
2019-03-12T04:58:41.815Z,994.30
2019-03-12T04:59:41.821Z,994.30
2019-03-12T05:00:42.335Z,994.34
2019-03-12T05:01:45.321Z,994.33
2019-03-12T05:02:42.320Z,994.39
2019-03-12T05:03:42.319Z,994.40
2019-03-12T05:04:42.818Z,994.42
2019-03-12T05:05:42.819Z,994.43
2019-03-12T05:06:46.843Z,994.38
2019-03-12T05:07:42.818Z,994.40
2019-03-12T05:08:43.320Z,994.42
2019-03-12T05:09:43.328Z,994.44
2019-03-12T05:11:04.317Z,994.41
2019-03-12T05:11:43.318Z,994.44
2019-03-12T05:12:47.825Z,994.42
2019-03-12T05:13:43.819Z,994.41
2019-03-12T05:14:43.158Z,994.40
2019-03-12T05:15:43.818Z,994.42
2019-03-12T05:16:43.818Z,994.38
2019-03-12T05:17:44.331Z,994.35
2019-03-12T05:18:47.818Z,994.36
2019-03-12T05:19:44.317Z,994.36
2019-03-12T05:20:44.322Z,994.36
2019-03-12T05:21:45.074Z,994.32
2019-03-12T05:22:44.875Z,994.33
2019-03-12T05:23:48.817Z,994.34
2019-03-12T05:24:44.820Z,994.35
2019-03-12T05:25:45.317Z,994.34
2019-03-12T05:26:45.317Z,994.33
2019-03-12T05:27:45.321Z,994.33
2019-03-12T05:30:24.057Z,994.30
2019-03-12T05:31:23.557Z,994.29
2019-03-12T05:32:21.123Z,994.33
2019-03-12T05:33:21.124Z,994.37
2019-03-12T05:34:24.628Z,994.40
2019-03-12T05:35:21.646Z,994.39
2019-03-12T05:36:21.622Z,994.42
2019-03-12T05:37:21.624Z,994.42
2019-03-12T05:38:43.119Z,994.47
2019-03-12T05:39:25.622Z,994.46
2019-03-12T05:40:22.122Z,994.44
2019-03-12T05:41:43.121Z,994.47
2019-03-12T05:42:22.623Z,994.46
2019-03-12T05:43:22.628Z,994.47
2019-03-12T05:44:22.645Z,994.50
2019-03-12T05:45:47.627Z,994.43
2019-03-12T05:46:23.121Z,994.44
2019-03-12T05:47:23.122Z,994.42
2019-03-12T05:48:23.123Z,994.43
2019-03-12T05:49:23.119Z,994.46
2019-03-12T05:50:23.632Z,994.47
2019-03-12T05:51:27.555Z,994.47
2019-03-12T05:52:23.616Z,994.47
2019-03-12T05:53:23.622Z,994.48
2019-03-12T05:54:24.121Z,994.47
2019-03-12T05:55:24.120Z,994.53
2019-03-12T05:56:27.620Z,994.52
2019-03-12T05:57:24.151Z,994.52
2019-03-12T05:58:45.620Z,994.52
2019-03-12T05:59:32.054Z,994.46
2019-03-12T06:00:23.978Z,994.45
2019-03-12T06:01:24.622Z,994.40
2019-03-12T06:02:49.624Z,994.42
2019-03-12T06:03:46.120Z,994.41
2019-03-12T06:04:25.119Z,994.37
2019-03-12T06:05:25.120Z,994.38
2019-03-12T06:06:25.619Z,994.40
2019-03-12T06:07:25.622Z,994.36
2019-03-12T06:08:28.619Z,994.37
2019-03-12T06:09:30.214Z,994.37
2019-03-12T06:10:26.119Z,994.36
2019-03-12T06:11:26.147Z,994.37
2019-03-12T06:12:26.125Z,994.39
2019-03-12T06:13:30.120Z,994.37
2019-03-12T06:15:57.852Z,994.36
2019-03-12T06:16:57.856Z,994.38
2019-03-12T06:17:57.858Z,994.33
2019-03-12T06:19:01.354Z,994.34
2019-03-12T06:19:58.357Z,994.32
2019-03-12T06:20:58.365Z,994.34
2019-03-12T06:23:30.460Z,994.36
2019-03-12T06:24:33.965Z,994.31
2019-03-12T06:25:30.463Z,994.31
2019-03-12T06:28:02.205Z,994.27
2019-03-12T06:29:02.199Z,994.28
2019-03-12T06:30:05.699Z,994.28
2019-03-12T06:31:02.700Z,994.30
2019-03-12T06:32:22.890Z,994.29
2019-03-12T06:33:02.712Z,994.29
2019-03-12T06:34:02.702Z,994.32
2019-03-12T06:35:06.699Z,994.31
2019-03-12T06:36:03.201Z,994.30
2019-03-12T06:37:05.204Z,994.30
2019-03-12T06:38:03.198Z,994.29
2019-03-12T06:40:38.302Z,994.25
2019-03-12T06:41:35.310Z,994.22
2019-03-12T06:42:34.773Z,994.21
2019-03-12T06:43:35.812Z,994.19
2019-03-12T06:44:34.896Z,994.22
2019-03-12T06:47:13.055Z,994.16
2019-03-12T06:48:11.626Z,994.19
2019-03-12T06:49:32.722Z,994.16
2019-03-12T06:50:11.623Z,994.23
2019-03-12T06:51:14.121Z,994.15
2019-03-12T06:52:14.557Z,994.13
2019-03-12T06:53:12.123Z,994.13
2019-03-12T06:54:12.122Z,994.02
2019-03-12T06:55:12.667Z,994.00
2019-03-12T06:56:16.621Z,993.96
2019-03-12T06:57:26.620Z,993.90
2019-03-12T06:58:12.620Z,993.88
2019-03-12T06:59:12.628Z,993.79
2019-03-12T07:00:13.128Z,993.80
2019-03-12T07:01:44.118Z,993.81
2019-03-12T07:02:13.121Z,993.79
2019-03-12T07:04:44.762Z,993.86
2019-03-12T07:05:44.734Z,993.88
2019-03-12T07:06:48.233Z,993.89
2019-03-12T07:07:45.901Z,993.88
2019-03-12T07:08:45.236Z,993.90
2019-03-12T07:09:45.232Z,993.85
2019-03-12T07:10:45.260Z,993.80
2019-03-12T07:11:49.233Z,993.83
2019-03-12T07:12:45.732Z,993.79
2019-03-12T07:13:45.072Z,993.78
2019-03-12T07:14:45.732Z,993.85
2019-03-12T07:15:45.735Z,993.80
2019-03-12T07:17:10.732Z,993.74
2019-03-12T07:18:07.232Z,993.72
2019-03-12T07:18:46.232Z,993.68
2019-03-12T07:19:46.231Z,993.64
2019-03-12T07:21:07.731Z,993.61
2019-03-12T07:21:46.732Z,993.64
2019-03-12T07:22:50.731Z,993.65
2019-03-12T07:23:46.730Z,993.66
2019-03-12T07:24:47.232Z,993.62
2019-03-12T07:25:49.582Z,993.62
2019-03-12T07:26:47.233Z,993.62
2019-03-12T07:27:47.232Z,993.60
2019-03-12T07:28:53.166Z,993.55
2019-03-12T07:30:08.731Z,993.52
2019-03-12T07:30:47.733Z,993.49
2019-03-12T07:31:47.731Z,993.48
2019-03-12T07:32:48.279Z,993.47
2019-03-12T07:33:48.235Z,993.37
2019-03-12T07:34:51.727Z,993.41
2019-03-12T07:35:48.230Z,993.39
2019-03-12T07:37:09.730Z,993.33
2019-03-12T07:37:50.730Z,993.30
2019-03-12T07:38:48.735Z,993.33
2019-03-12T07:39:52.730Z,993.28
2019-03-12T07:40:49.231Z,993.31
2019-03-12T07:41:49.230Z,993.26
2019-03-12T07:42:49.232Z,993.27
2019-03-12T07:43:49.233Z,993.28
2019-03-12T07:44:49.731Z,993.26
2019-03-12T07:45:53.729Z,993.21
2019-03-12T07:47:10.729Z,993.19
2019-03-12T07:47:49.733Z,993.19
2019-03-12T07:49:11.230Z,993.21
2019-03-12T07:49:50.229Z,993.23
2019-03-12T07:50:50.229Z,993.21
2019-03-12T07:51:53.729Z,993.21
2019-03-12T07:53:12.696Z,993.16
2019-03-12T07:53:59.392Z,993.15
2019-03-12T07:54:50.729Z,993.15
2019-03-12T07:55:50.729Z,993.15
2019-03-12T07:56:54.730Z,993.12
2019-03-12T07:58:12.232Z,993.13
2019-03-12T07:59:12.258Z,993.13
2019-03-12T07:59:51.228Z,993.15
2019-03-12T08:00:51.728Z,993.10
2019-03-12T08:01:51.729Z,993.13
2019-03-12T08:02:54.728Z,993.14
2019-03-12T08:03:51.746Z,993.13
2019-03-12T08:04:52.277Z,993.09
2019-03-12T08:05:52.228Z,993.03
2019-03-12T08:07:13.325Z,993.08
2019-03-12T08:08:17.230Z,993.02
2019-03-12T08:10:24.463Z,992.94
2019-03-12T08:14:53.134Z,992.86
2019-03-12T08:15:52.172Z,992.84
2019-03-12T08:18:06.533Z,992.79
2019-03-12T08:19:02.554Z,992.79
2019-03-12T08:20:23.551Z,992.77
2019-03-12T08:21:03.043Z,992.75
2019-03-12T08:22:04.497Z,992.69
2019-03-12T08:23:03.046Z,992.65
2019-03-12T08:24:06.540Z,992.65
2019-03-12T08:25:03.044Z,992.65
2019-03-12T08:26:03.540Z,992.60
2019-03-12T08:27:03.540Z,992.54
2019-03-12T08:28:03.540Z,992.50
2019-03-12T08:29:07.542Z,992.49
2019-03-12T08:30:04.042Z,992.51
2019-03-12T08:31:04.039Z,992.48
2019-03-12T08:32:04.053Z,992.45
2019-03-12T08:33:04.041Z,992.51
2019-03-12T08:34:04.537Z,992.55
2019-03-12T08:35:07.539Z,992.45
2019-03-12T08:36:04.537Z,992.49
2019-03-12T08:37:04.539Z,992.47
2019-03-12T08:38:05.039Z,992.50
2019-03-12T08:39:05.048Z,992.48
2019-03-12T08:40:09.049Z,992.39
2019-03-12T08:41:05.039Z,992.41
2019-03-12T08:42:05.539Z,992.47
2019-03-12T08:43:05.539Z,992.38
2019-03-12T08:44:05.540Z,992.39
2019-03-12T08:45:05.539Z,992.36
2019-03-12T08:47:41.189Z,992.41
2019-03-12T08:48:41.198Z,992.33
2019-03-12T08:49:41.213Z,992.39
2019-03-12T08:51:05.231Z,992.30
2019-03-12T08:51:45.193Z,992.24
2019-03-12T08:52:41.697Z,992.32
2019-03-12T08:54:02.696Z,992.24
2019-03-12T08:55:04.245Z,992.21
2019-03-12T08:56:03.221Z,992.21
2019-03-12T08:58:07.194Z,992.22
2019-03-12T09:00:14.427Z,992.16
2019-03-12T09:01:14.436Z,992.13
2019-03-12T09:02:14.437Z,992.13
2019-03-12T09:03:17.936Z,992.08
2019-03-12T09:04:14.936Z,992.07
2019-03-12T09:05:14.939Z,992.05
2019-03-12T09:06:14.935Z,992.06
2019-03-12T09:07:15.435Z,992.01
2019-03-12T09:08:19.436Z,992.05
2019-03-12T09:09:14.785Z,992.07
2019-03-12T09:10:15.440Z,992.03
2019-03-12T09:11:15.938Z,991.99
2019-03-12T09:12:15.935Z,991.98
2019-03-12T09:13:15.946Z,991.96
2019-03-12T09:14:19.941Z,991.97
2019-03-12T09:15:16.438Z,991.93
2019-03-12T09:16:16.436Z,991.90
2019-03-12T09:17:16.435Z,991.89
2019-03-12T09:18:16.435Z,991.83
2019-03-12T09:19:16.959Z,991.81
2019-03-12T09:20:19.935Z,991.81
2019-03-12T09:21:16.934Z,991.85
2019-03-12T09:22:37.957Z,991.83
2019-03-12T09:23:31.435Z,991.80
2019-03-12T09:24:17.435Z,991.83
2019-03-12T09:25:22.379Z,991.80
2019-03-12T09:26:17.435Z,991.78
2019-03-12T09:27:17.435Z,991.76
2019-03-12T09:28:17.931Z,991.66
2019-03-12T09:29:17.937Z,991.74
2019-03-12T09:30:21.435Z,991.69
2019-03-12T09:31:17.938Z,991.65
2019-03-12T09:32:18.434Z,991.61
2019-03-12T09:33:18.435Z,991.63
2019-03-12T09:34:18.442Z,991.65
2019-03-12T09:35:22.442Z,991.56
2019-03-12T09:37:50.676Z,991.58
2019-03-12T09:38:50.687Z,991.53
2019-03-12T09:39:50.683Z,991.44
2019-03-12T09:40:54.183Z,991.52
2019-03-12T09:41:51.183Z,991.54
2019-03-12T09:42:50.523Z,991.45
2019-03-12T09:43:51.188Z,991.49
2019-03-12T09:44:51.700Z,991.52
2019-03-12T09:45:54.181Z,991.46
2019-03-12T09:46:51.683Z,991.39
2019-03-12T09:47:51.682Z,991.43
2019-03-12T09:49:14.117Z,991.41
2019-03-12T09:49:52.183Z,991.31
2019-03-12T09:50:58.637Z,991.32
2019-03-12T09:51:52.193Z,991.32
2019-03-12T09:52:52.182Z,991.31
2019-03-12T09:53:52.683Z,991.33
2019-03-12T09:54:54.682Z,991.28
2019-03-12T09:55:56.689Z,991.26
2019-03-12T09:57:13.688Z,991.16
2019-03-12T09:58:14.188Z,991.25
2019-03-12T09:59:14.182Z,991.23
2019-03-12T09:59:52.528Z,991.33
2019-03-12T10:00:53.241Z,991.22
2019-03-12T10:01:59.392Z,991.25
2019-03-12T10:02:53.683Z,991.20
2019-03-12T10:04:14.787Z,991.18
2019-03-12T10:04:53.152Z,991.21
2019-03-12T10:05:54.181Z,991.17
2019-03-12T10:06:57.689Z,991.15
2019-03-12T10:07:54.181Z,991.11
2019-03-12T10:08:54.184Z,991.12
2019-03-12T10:09:54.681Z,991.05
2019-03-12T10:10:54.690Z,991.02
2019-03-12T10:11:54.687Z,990.95
2019-03-12T10:12:58.680Z,990.95
2019-03-12T10:13:55.181Z,990.90
2019-03-12T10:14:55.190Z,990.91
2019-03-12T10:15:55.189Z,990.84
2019-03-12T10:16:55.181Z,990.84
2019-03-12T10:17:55.685Z,990.86
2019-03-12T10:18:58.687Z,990.87
2019-03-12T10:19:55.687Z,990.78
2019-03-12T10:20:55.681Z,990.77
2019-03-12T10:21:56.184Z,990.79
2019-03-12T10:22:58.182Z,990.73
2019-03-12T10:24:21.181Z,990.71
2019-03-12T10:24:56.180Z,990.67
2019-03-12T10:25:56.682Z,990.75
2019-03-12T10:26:56.682Z,990.76
2019-03-12T10:27:56.680Z,990.69
2019-03-12T10:28:56.683Z,990.73
2019-03-12T10:30:01.182Z,990.66
2019-03-12T10:30:57.181Z,990.64
2019-03-12T10:31:57.189Z,990.63
2019-03-12T10:32:57.197Z,990.65
2019-03-12T10:33:57.682Z,990.68
2019-03-12T10:34:57.681Z,990.61
2019-03-12T10:36:24.319Z,990.60
2019-03-12T10:37:10.947Z,990.65
2019-03-12T10:37:57.272Z,990.60
2019-03-12T10:38:58.180Z,990.57
2019-03-12T10:40:19.185Z,990.53
2019-03-12T10:41:02.181Z,990.57
2019-03-12T10:45:23.711Z,990.51
2019-03-12T10:46:06.154Z,990.42
2019-03-12T10:47:02.651Z,990.46
2019-03-12T10:48:02.649Z,990.39
2019-03-12T10:49:36.636Z,990.52
2019-03-12T10:50:03.162Z,990.48
2019-03-12T10:51:06.648Z,990.39
2019-03-12T10:52:03.149Z,990.49
2019-03-12T10:53:03.148Z,990.47
2019-03-12T10:54:03.661Z,990.39
2019-03-12T10:55:13.113Z,990.39
2019-03-12T10:56:07.651Z,990.29
2019-03-12T10:57:03.665Z,990.22
2019-03-12T10:58:04.147Z,990.14
2019-03-12T10:59:25.155Z,990.10
2019-03-12T11:00:04.150Z,990.04
2019-03-12T11:01:04.150Z,990.01
2019-03-12T11:02:07.648Z,989.93
2019-03-12T11:03:04.648Z,989.96
2019-03-12T11:04:04.648Z,989.96
2019-03-12T11:05:04.655Z,989.87
2019-03-12T11:06:27.140Z,989.95
2019-03-12T11:07:16.590Z,989.95
2019-03-12T11:09:58.132Z,989.90
2019-03-12T11:10:38.075Z,989.88
2019-03-12T11:11:40.075Z,989.90
2019-03-12T11:12:40.651Z,989.93
2019-03-12T11:13:37.644Z,989.99
2019-03-12T11:14:37.641Z,989.80
2019-03-12T11:15:37.673Z,989.80
2019-03-12T11:16:37.651Z,989.83
2019-03-12T11:19:14.188Z,989.65
2019-03-12T11:20:14.197Z,989.71
2019-03-12T11:21:14.197Z,989.55
2019-03-12T11:22:14.698Z,989.52
2019-03-12T11:23:18.200Z,989.56
2019-03-12T11:24:14.697Z,989.64
2019-03-12T11:25:26.506Z,989.57
2019-03-12T11:26:14.291Z,989.54
2019-03-12T11:27:15.196Z,989.37
2019-03-12T11:28:18.198Z,989.60
2019-03-12T11:29:15.198Z,989.40
2019-03-12T11:30:15.710Z,989.54
2019-03-12T11:31:15.700Z,989.47
2019-03-12T11:32:15.715Z,989.36
2019-03-12T11:33:18.885Z,989.45
2019-03-12T11:34:16.199Z,989.42
2019-03-12T11:35:16.201Z,989.44
2019-03-12T11:36:16.202Z,989.37
2019-03-12T11:37:16.209Z,989.32
2019-03-12T11:38:16.249Z,989.27
2019-03-12T11:39:20.711Z,989.27
2019-03-12T11:40:16.832Z,989.19
2019-03-12T11:41:16.698Z,989.16
2019-03-12T11:42:16.697Z,989.08
2019-03-12T11:43:17.238Z,989.13
2019-03-12T11:44:17.198Z,989.15
2019-03-12T11:45:41.733Z,989.10
2019-03-12T11:46:17.199Z,989.11
2019-03-12T11:47:17.697Z,989.10
2019-03-12T11:48:17.791Z,989.05
2019-03-12T11:49:17.866Z,989.08
2019-03-12T11:50:21.954Z,988.99
2019-03-12T11:51:39.197Z,988.95
2019-03-12T11:52:18.238Z,988.90
2019-03-12T11:53:18.208Z,988.88
2019-03-12T11:54:17.798Z,988.90
2019-03-12T11:55:18.697Z,988.82
2019-03-12T11:56:43.850Z,988.91
2019-03-12T11:57:18.719Z,988.86
2019-03-12T11:58:18.695Z,988.96
2019-03-12T11:59:19.198Z,988.79
2019-03-12T12:00:21.215Z,988.79
2019-03-12T12:01:19.202Z,988.82
2019-03-12T12:02:45.163Z,988.74
2019-03-12T12:03:19.710Z,988.69
2019-03-12T12:04:19.698Z,988.59
2019-03-12T12:05:19.699Z,988.64
2019-03-12T12:06:19.715Z,988.74
2019-03-12T12:07:23.719Z,988.59
2019-03-12T12:08:20.227Z,988.62
2019-03-12T12:09:20.202Z,988.51
2019-03-12T12:10:20.205Z,988.52
2019-03-12T12:11:20.196Z,988.53
2019-03-12T12:12:20.705Z,988.43
2019-03-12T12:13:23.697Z,988.33
2019-03-12T12:14:20.699Z,988.39
2019-03-12T12:15:20.698Z,988.36
2019-03-12T12:16:46.131Z,988.38
2019-03-12T12:17:42.199Z,988.31
2019-03-12T12:18:25.204Z,988.29
2019-03-12T12:19:21.196Z,988.29
2019-03-12T12:20:29.458Z,988.29
2019-03-12T12:21:22.672Z,988.24
2019-03-12T12:23:56.664Z,988.23
2019-03-12T12:24:53.166Z,988.17
2019-03-12T12:25:53.666Z,988.12
2019-03-12T12:27:14.665Z,988.22
2019-03-12T12:27:53.724Z,988.24
2019-03-12T12:28:59.123Z,988.16
2019-03-12T12:29:54.166Z,988.19
2019-03-12T12:30:54.166Z,988.15
2019-03-12T12:31:56.167Z,988.07
2019-03-12T12:32:54.170Z,988.03
2019-03-12T12:33:54.166Z,988.06
2019-03-12T12:34:57.664Z,988.18
2019-03-12T12:35:54.666Z,987.89
2019-03-12T12:36:54.665Z,987.81
2019-03-12T12:37:54.671Z,987.84
2019-03-12T12:38:55.167Z,987.72
2019-03-12T12:39:58.681Z,987.78
2019-03-12T12:40:55.172Z,987.74
2019-03-12T12:41:55.168Z,987.63
2019-03-12T12:43:16.666Z,987.61
2019-03-12T12:43:55.670Z,987.45
2019-03-12T12:44:55.667Z,987.42
2019-03-12T12:46:20.721Z,987.44
2019-03-12T12:46:55.268Z,987.45
2019-03-12T12:47:56.176Z,987.42
2019-03-12T12:48:56.168Z,987.42
2019-03-12T12:49:56.167Z,987.35
2019-03-12T12:51:02.916Z,987.41
2019-03-12T12:51:59.664Z,987.31
2019-03-12T12:53:17.665Z,987.27
2019-03-12T12:53:56.665Z,987.29
2019-03-12T12:54:56.671Z,987.34
2019-03-12T12:56:18.185Z,987.23
2019-03-12T12:57:01.168Z,987.24
2019-03-12T12:57:57.165Z,987.18
2019-03-12T12:58:57.171Z,987.05
2019-03-12T12:59:57.670Z,987.13
2019-03-12T13:00:56.883Z,987.02
2019-03-12T13:01:57.665Z,987.04
2019-03-12T13:03:22.167Z,987.13
2019-03-12T13:03:58.171Z,987.07
2019-03-12T13:04:58.165Z,987.02
2019-03-12T13:05:58.165Z,987.16
2019-03-12T13:06:58.166Z,987.07
2019-03-12T13:08:02.179Z,986.92
2019-03-12T13:08:58.667Z,986.86
2019-03-12T13:09:58.679Z,986.93
2019-03-12T13:10:58.665Z,986.91
2019-03-12T13:14:08.910Z,986.76
2019-03-12T13:14:41.075Z,986.77
2019-03-12T13:17:02.160Z,986.78
2019-03-12T13:18:02.164Z,986.78
2019-03-12T13:19:06.662Z,986.78
2019-03-12T13:20:02.669Z,986.69
2019-03-12T13:21:02.662Z,986.68
2019-03-12T13:22:03.619Z,986.67
2019-03-12T13:23:24.162Z,986.53
2019-03-12T13:24:04.630Z,986.58
2019-03-12T13:25:06.166Z,986.58
2019-03-12T13:26:04.096Z,986.49
2019-03-12T13:27:03.162Z,986.48
2019-03-12T13:28:03.668Z,986.49
2019-03-12T13:29:24.665Z,986.46
2019-03-12T13:30:07.692Z,986.36
2019-03-12T13:31:03.665Z,986.41
2019-03-12T13:32:13.494Z,986.40
2019-03-12T13:33:25.170Z,986.41
2019-03-12T13:34:04.212Z,986.43
2019-03-12T13:35:04.662Z,986.33
2019-03-12T13:36:08.662Z,986.36
2019-03-12T13:37:04.659Z,986.38
2019-03-12T13:38:04.667Z,986.38
2019-03-12T13:39:04.693Z,986.40
2019-03-12T13:40:26.518Z,986.39
2019-03-12T13:41:11.168Z,986.35
2019-03-12T13:42:08.662Z,986.33
2019-03-12T13:43:05.233Z,986.26
2019-03-12T13:44:26.662Z,986.22
2019-03-12T13:45:05.680Z,986.29
2019-03-12T13:46:05.661Z,986.26
2019-03-12T13:47:09.662Z,986.25
2019-03-12T13:48:27.162Z,986.14
2019-03-12T13:49:06.181Z,986.11
2019-03-12T13:50:09.099Z,986.23
2019-03-12T13:51:06.171Z,986.13
2019-03-12T13:52:31.173Z,986.05
2019-03-12T13:53:06.662Z,986.11
2019-03-12T13:54:09.622Z,985.96
2019-03-12T13:55:06.666Z,986.04
2019-03-12T13:56:28.167Z,986.00
2019-03-12T13:57:07.161Z,986.03
2019-03-12T13:58:10.660Z,985.98
2019-03-12T13:59:28.160Z,985.85
2019-03-12T14:00:07.662Z,985.93
2019-03-12T14:01:07.660Z,985.86
2019-03-12T14:02:07.003Z,985.76
2019-03-12T14:03:12.161Z,985.72
2019-03-12T14:04:29.161Z,985.67
2019-03-12T14:05:29.157Z,985.69
2019-03-12T14:06:29.201Z,985.67
2019-03-12T14:07:29.161Z,985.61
2019-03-12T14:08:09.601Z,985.56
2019-03-12T14:09:12.160Z,985.50
2019-03-12T14:10:08.661Z,985.44
2019-03-12T14:11:08.662Z,985.51
2019-03-12T14:12:08.662Z,985.41
2019-03-12T14:13:09.164Z,985.47
2019-03-12T14:14:13.160Z,985.45
2019-03-12T14:15:10.594Z,985.44
2019-03-12T14:16:09.159Z,985.42
2019-03-12T14:17:30.660Z,985.38
2019-03-12T14:18:30.660Z,985.31
2019-03-12T14:19:09.666Z,985.31
2019-03-12T14:20:13.160Z,985.25
2019-03-12T14:21:10.160Z,985.31
2019-03-12T14:22:31.160Z,985.22
2019-03-12T14:23:10.167Z,985.23
2019-03-12T14:24:10.160Z,985.16
2019-03-12T14:25:14.160Z,985.19
2019-03-12T14:26:10.659Z,985.15
2019-03-12T14:27:10.660Z,985.09
2019-03-12T14:28:10.663Z,985.10
2019-03-12T14:29:13.094Z,985.07
2019-03-12T14:30:11.161Z,984.93
2019-03-12T14:31:15.161Z,985.01
2019-03-12T14:32:12.199Z,985.00
2019-03-12T14:33:11.163Z,985.00
2019-03-12T14:34:11.660Z,984.97
2019-03-12T14:35:11.660Z,984.91
2019-03-12T14:36:36.661Z,984.81
2019-03-12T14:37:11.663Z,984.84
2019-03-12T14:38:33.168Z,984.92
2019-03-12T14:39:12.159Z,984.86
2019-03-12T14:40:12.181Z,984.80
2019-03-12T14:41:12.160Z,984.85
2019-03-12T14:42:15.156Z,984.72
2019-03-12T14:43:12.665Z,984.75
2019-03-12T14:45:44.225Z,984.52
2019-03-12T14:46:45.154Z,984.53
2019-03-12T14:47:49.159Z,984.44
2019-03-12T14:48:45.162Z,984.37
2019-03-12T14:49:45.156Z,984.35
2019-03-12T14:50:45.658Z,984.28
2019-03-12T14:51:46.617Z,984.29
2019-03-12T14:52:45.656Z,984.23
2019-03-12T14:53:49.156Z,984.21
2019-03-12T14:56:17.392Z,984.14
2019-03-12T14:57:17.400Z,984.15
2019-03-12T14:58:17.401Z,984.05
2019-03-12T14:59:21.400Z,984.04
2019-03-12T15:00:38.901Z,984.05
2019-03-12T15:01:17.902Z,984.05
2019-03-12T15:02:17.902Z,983.94
2019-03-12T15:03:18.402Z,983.96
2019-03-12T15:04:18.400Z,983.94
2019-03-12T15:05:21.401Z,983.87
2019-03-12T15:06:18.402Z,983.87
2019-03-12T15:07:18.900Z,983.92
2019-03-12T15:08:18.900Z,983.75
2019-03-12T15:09:39.900Z,983.86
2019-03-12T15:11:54.127Z,983.78